Time;durP1;ratioP1;P1;durP2;ratioP2;P2;SDS_P1;SDS_P2;PMS_P1;PMS_P2;Temp;Humidity;BMP_temperature;BMP_pressure;BME280_temperature;BME280_humidity;BME280_pressure;Samples;Min_cycle;Max_cycle;Signal;HPM_P1;HPM_P2
2021/09/21 00:00:24;;;;;;;11.17;10.10;;;14.70;99.90;;;;;;4954812;28;20181;-64
2021/09/21 00:02:50;;;;;;;12.57;11.30;;;14.50;99.90;;;;;;4972953;28;20216;-63
2021/09/21 00:05:15;;;;;;;13.40;12.10;;;14.40;99.90;;;;;;4973270;28;20184;-65
2021/09/21 00:07:41;;;;;;;12.20;11.10;;;14.40;99.90;;;;;;4972750;28;20179;-64
2021/09/21 00:10:08;;;;;;;10.90;9.90;;;14.50;99.90;;;;;;4973036;28;20180;-63
2021/09/21 00:12:34;;;;;;;11.67;10.73;;;14.60;99.90;;;;;;4971103;28;20208;-65
2021/09/21 00:14:59;;;;;;;10.93;10.03;;;14.50;99.90;;;;;;4954239;28;20416;-65
2021/09/21 00:17:25;;;;;;;9.90;9.00;;;14.60;99.90;;;;;;4953935;28;20424;-64
2021/09/21 00:19:51;;;;;;;10.30;9.40;;;14.60;99.90;;;;;;4954233;29;20803;-65
2021/09/21 00:22:16;;;;;;;10.63;9.70;;;14.60;99.90;;;;;;4972427;28;20287;-64
2021/09/21 00:24:42;;;;;;;11.00;10.00;;;14.40;99.90;;;;;;4973427;28;20176;-64
2021/09/21 00:27:07;;;;;;;11.83;10.83;;;14.40;99.90;;;;;;4967474;28;20703;-65
2021/09/21 00:29:33;;;;;;;11.10;9.90;;;14.30;99.90;;;;;;4968709;28;20215;-65
2021/09/21 00:32:00;;;;;;;12.83;10.70;;;14.10;99.90;;;;;;4972894;28;20200;-64
2021/09/21 00:34:37;;;;;;;11.70;10.30;;;14.20;99.90;;;;;;4973241;28;20203;-64
2021/09/21 00:37:08;;;;;;;10.40;9.50;;;14.30;99.90;;;;;;4955076;28;20468;-64
2021/09/21 00:39:34;;;;;;;10.70;9.80;;;14.40;99.90;;;;;;4953791;28;20429;-64
2021/09/21 00:42:00;;;;;;;10.50;9.20;;;14.40;99.90;;;;;;4960865;28;20525;-63
2021/09/21 00:44:25;;;;;;;11.40;10.30;;;14.40;99.90;;;;;;4973220;28;20274;-64
2021/09/21 00:46:51;;;;;;;10.77;9.30;;;14.40;99.90;;;;;;4973191;28;20431;-65
2021/09/21 00:49:17;;;;;;;10.57;9.67;;;14.30;99.90;;;;;;4972614;28;20192;-64
2021/09/21 00:51:43;;;;;;;12.13;10.93;;;14.30;99.90;;;;;;4972880;28;20535;-65
2021/09/21 00:54:09;;;;;;;11.13;10.13;;;14.30;99.90;;;;;;4973130;28;20169;-64
2021/09/21 00:56:36;;;;;;;11.63;10.20;;;14.30;99.90;;;;;;4967255;28;20534;-63
2021/09/21 00:59:02;;;;;;;11.20;10.20;;;14.30;99.90;;;;;;4972736;28;20173;-65
2021/09/21 01:01:27;;;;;;;11.67;10.70;;;14.40;99.90;;;;;;4972037;28;20485;-64
2021/09/21 01:03:54;;;;;;;11.97;10.90;;;14.40;99.90;;;;;;4957989;28;20179;-65
2021/09/21 01:06:19;;;;;;;11.30;10.30;;;14.50;99.90;;;;;;4954751;28;20219;-65
2021/09/21 01:08:45;;;;;;;13.20;12.10;;;14.40;99.90;;;;;;4961297;28;20459;-64
2021/09/21 01:11:12;;;;;;;12.77;11.57;;;14.30;99.90;;;;;;4972901;28;20200;-64
2021/09/21 01:13:38;;;;;;;11.60;10.50;;;14.40;99.90;;;;;;4972720;28;20203;-65
2021/09/21 01:16:04;;;;;;;12.80;11.60;;;14.40;99.90;;;;;;4972734;28;20887;-64
2021/09/21 01:18:31;;;;;;;11.80;10.80;;;14.40;99.90;;;;;;4972627;28;20470;-65
2021/09/21 01:21:08;;;;;;;12.50;11.30;;;14.50;99.90;;;;;;4954200;28;20462;-65
2021/09/21 01:23:54;;;;;;;13.00;11.70;;;14.40;99.90;;;;;;4953731;28;20804;-64
2021/09/21 01:26:21;;;;;;;12.80;11.50;;;14.40;99.90;;;;;;4953518;28;20868;-65
2021/09/21 01:28:48;;;;;;;12.50;11.40;;;14.40;99.90;;;;;;4953200;28;20440;-65
2021/09/21 01:31:14;;;;;;;13.43;12.23;;;14.40;99.90;;;;;;4953236;28;20448;-63
2021/09/21 01:33:42;;;;;;;11.80;10.70;;;14.30;99.90;;;;;;4963270;28;20514;-63
2021/09/21 01:36:08;;;;;;;12.53;11.53;;;14.40;99.90;;;;;;4972467;28;20522;-64
2021/09/21 01:38:33;;;;;;;13.10;11.90;;;14.30;99.90;;;;;;4972480;28;20509;-64
2021/09/21 01:40:59;;;;;;;12.43;11.23;;;14.20;99.90;;;;;;4972645;28;20188;-65
2021/09/21 01:43:24;;;;;;;12.10;10.90;;;14.20;99.90;;;;;;4972448;28;20184;-65
2021/09/21 01:45:50;;;;;;;11.80;10.70;;;14.20;99.90;;;;;;4957323;28;20647;-65
2021/09/21 01:48:15;;;;;;;13.63;12.17;;;14.20;99.90;;;;;;4953174;29;20165;-64
2021/09/21 01:53:40;;;;;;;13.93;12.50;;;14.30;99.90;;;;;;4956890;28;20204;-64
2021/09/21 01:58:48;;;;;;;13.33;12.13;;;14.30;99.90;;;;;;4971904;28;20435;-65
2021/09/21 02:01:16;;;;;;;13.50;11.30;;;14.30;99.90;;;;;;4956399;28;20554;-64
2021/09/21 02:03:42;;;;;;;13.87;12.60;;;14.30;99.90;;;;;;4975209;28;20923;-63
2021/09/21 02:06:09;;;;;;;13.70;12.37;;;14.40;99.90;;;;;;4975715;28;20431;-65
2021/09/21 02:08:35;;;;;;;12.27;11.07;;;14.30;99.90;;;;;;4973657;28;20769;-65
2021/09/21 02:11:00;;;;;;;14.13;12.83;;;14.30;99.90;;;;;;4975327;28;20461;-65
2021/09/21 02:13:26;;;;;;;12.33;11.17;;;14.40;99.90;;;;;;4969581;28;20208;-65
2021/09/21 02:15:52;;;;;;;12.23;10.90;;;14.30;99.90;;;;;;4956283;28;20176;-65
2021/09/21 02:18:18;;;;;;;12.97;11.60;;;14.30;99.90;;;;;;4956106;29;20464;-65
2021/09/21 02:20:44;;;;;;;11.93;10.73;;;14.10;99.90;;;;;;4956100;28;20554;-64
2021/09/21 02:23:09;;;;;;;12.23;11.20;;;14.20;99.90;;;;;;4958189;28;20177;-65
2021/09/21 02:25:35;;;;;;;13.33;12.07;;;14.10;99.90;;;;;;4973583;28;20188;-65
2021/09/21 02:28:00;;;;;;;12.63;11.53;;;14.10;99.90;;;;;;4975175;28;20169;-64
2021/09/21 02:30:26;;;;;;;12.60;11.40;;;14.20;99.90;;;;;;4963949;28;20180;-65
2021/09/21 02:32:51;;;;;;;12.30;11.20;;;14.20;99.90;;;;;;4958543;28;20584;-64
2021/09/21 02:35:18;;;;;;;14.93;10.70;;;14.10;99.90;;;;;;4972807;28;20218;-64
2021/09/21 02:37:44;;;;;;;12.00;10.90;;;14.10;99.90;;;;;;4956750;28;20187;-65
2021/09/21 02:40:11;;;;;;;12.40;11.30;;;14.10;99.90;;;;;;4955938;28;20443;-65
2021/09/21 02:42:36;;;;;;;13.57;12.20;;;14.20;99.90;;;;;;4955893;28;20547;-65
2021/09/21 02:45:04;;;;;;;13.40;12.00;;;14.30;99.90;;;;;;4955837;28;20515;-64
2021/09/21 02:47:30;;;;;;;11.70;10.73;;;14.40;99.90;;;;;;4958349;28;20180;-64
2021/09/21 02:49:55;;;;;;;12.67;11.57;;;14.30;99.90;;;;;;4970829;28;20442;-65
2021/09/21 02:52:21;;;;;;;12.30;11.20;;;14.20;99.90;;;;;;4967906;28;20377;-65
2021/09/21 02:54:46;;;;;;;12.70;11.50;;;14.20;99.90;;;;;;4955588;28;20209;-64
2021/09/21 02:57:12;;;;;;;12.30;11.30;;;14.20;99.90;;;;;;4961548;28;20235;-65
2021/09/21 02:59:37;;;;;;;12.33;11.00;;;14.30;99.90;;;;;;4957875;28;20714;-64
2021/09/21 03:02:03;;;;;;;13.60;12.40;;;14.20;99.90;;;;;;4954309;28;20240;-64
2021/09/21 03:04:32;;;;;;;13.10;11.73;;;14.20;99.90;;;;;;4955486;29;20647;-65
2021/09/21 03:07:05;;;;;;;14.97;12.30;;;14.20;99.90;;;;;;4961586;28;20181;-65
2021/09/21 03:17:28;;;;;;;13.87;12.43;;;14.20;99.90;;;;;;4974186;28;20510;-65
2021/09/21 03:19:58;;;;;;;13.10;11.87;;;14.10;99.90;;;;;;4973945;28;20934;-65
2021/09/21 03:22:26;;;;;;;11.20;10.20;;;14.00;99.90;;;;;;4957972;28;20228;-65
2021/09/21 03:24:52;;;;;;;12.83;11.53;;;14.00;99.90;;;;;;4955363;28;20946;-65
2021/09/21 03:27:18;;;;;;;13.20;12.03;;;14.00;99.90;;;;;;4937803;29;20425;-65
2021/09/21 03:29:44;;;;;;;13.70;12.30;;;14.10;99.90;;;;;;4954976;28;20440;-65
2021/09/21 03:32:10;;;;;;;15.13;11.90;;;14.10;99.90;;;;;;4954721;28;20555;-65
2021/09/21 03:34:37;;;;;;;11.73;10.77;;;14.00;99.90;;;;;;4972209;28;20544;-65
2021/09/21 03:37:08;;;;;;;11.90;10.90;;;14.00;99.90;;;;;;4956258;28;20433;-64
2021/09/21 03:39:33;;;;;;;13.17;11.87;;;14.10;99.90;;;;;;4974014;28;20416;-65
2021/09/21 03:41:59;;;;;;;11.90;10.80;;;13.90;99.90;;;;;;4974021;28;20439;-64
2021/09/21 03:44:26;;;;;;;13.10;12.00;;;14.00;99.90;;;;;;4969552;28;20551;-65
2021/09/21 03:46:52;;;;;;;12.77;11.57;;;14.10;99.90;;;;;;4954733;29;20165;-65
2021/09/21 03:49:17;;;;;;;12.43;11.30;;;13.90;99.90;;;;;;4954793;28;20502;-65
2021/09/21 03:51:43;;;;;;;13.27;12.07;;;13.90;99.90;;;;;;4954993;28;20208;-65
2021/09/21 03:54:09;;;;;;;12.40;11.40;;;13.90;99.90;;;;;;4954548;28;20188;-65
2021/09/21 03:56:36;;;;;;;12.27;11.23;;;13.90;99.90;;;;;;4954608;28;20325;-65
2021/09/21 03:59:06;;;;;;;12.20;10.87;;;14.00;99.90;;;;;;4954175;29;20425;-65
2021/09/21 04:01:32;;;;;;;12.70;11.07;;;14.00;99.90;;;;;;4954520;28;20471;-65
2021/09/21 04:03:59;;;;;;;12.50;11.50;;;13.90;99.90;;;;;;4957610;28;20440;-65
2021/09/21 04:06:25;;;;;;;12.60;11.23;;;13.90;99.90;;;;;;4971018;28;20443;-66
2021/09/21 04:08:51;;;;;;;13.10;11.70;;;14.00;99.90;;;;;;4937993;29;20440;-65
2021/09/21 04:11:17;;;;;;;12.60;11.50;;;14.10;99.90;;;;;;4954216;28;20456;-65
2021/09/21 04:13:43;;;;;;;13.60;12.30;;;14.00;99.90;;;;;;4954006;28;20963;-65
2021/09/21 04:16:08;;;;;;;12.60;11.47;;;13.90;99.90;;;;;;4954331;28;20185;-65
2021/09/21 04:18:34;;;;;;;13.13;11.93;;;14.00;99.90;;;;;;4955171;28;20173;-64
2021/09/21 04:20:59;;;;;;;13.53;12.20;;;14.00;99.90;;;;;;4960222;28;20246;-65
2021/09/21 04:23:25;;;;;;;13.50;12.13;;;14.00;99.90;;;;;;4973136;28;20641;-65
2021/09/21 04:25:51;;;;;;;15.43;14.03;;;13.90;99.90;;;;;;4973420;28;20259;-64
2021/09/21 04:28:17;;;;;;;12.03;10.93;;;13.90;99.90;;;;;;4972725;28;20179;-65
2021/09/21 04:30:44;;;;;;;13.67;12.37;;;13.80;99.90;;;;;;5002702;23;20258;-63
2021/09/21 04:33:10;;;;;;;14.60;12.40;;;13.90;99.90;;;;;;4975129;28;20467;-64
2021/09/21 04:35:37;;;;;;;13.67;12.47;;;13.80;99.90;;;;;;4973343;28;20502;-63
2021/09/21 04:38:03;;;;;;;13.37;12.17;;;13.70;99.90;;;;;;4973063;28;20426;-64
2021/09/21 04:40:28;;;;;;;14.00;12.70;;;13.60;99.90;;;;;;4984431;28;20454;-64
2021/09/21 04:42:54;;;;;;;13.17;12.00;;;13.60;99.90;;;;;;4992366;28;20656;-64
2021/09/21 04:45:20;;;;;;;16.77;13.90;;;13.60;99.90;;;;;;4992438;28;20215;-64
2021/09/21 04:47:45;;;;;;;14.50;12.27;;;13.60;99.90;;;;;;4983052;28;20176;-64
2021/09/21 04:50:11;;;;;;;14.63;12.73;;;13.60;99.90;;;;;;4976874;28;20282;-62
2021/09/21 04:52:37;;;;;;;13.13;11.90;;;13.50;99.90;;;;;;4978798;28;20234;-64
2021/09/21 04:55:03;;;;;;;13.20;11.73;;;13.50;99.90;;;;;;4973121;28;20238;-64
2021/09/21 04:57:29;;;;;;;13.27;12.00;;;13.40;99.90;;;;;;4972875;28;20422;-64
2021/09/21 04:59:54;;;;;;;13.50;12.40;;;13.40;99.90;;;;;;4972944;28;20439;-64
2021/09/21 05:02:20;;;;;;;17.70;13.30;;;13.30;99.90;;;;;;4972994;28;20204;-64
2021/09/21 05:04:45;;;;;;;13.93;12.40;;;13.30;99.90;;;;;;4973019;28;20211;-64
2021/09/21 05:07:11;;;;;;;16.00;12.77;;;13.40;99.90;;;;;;4972832;28;20173;-64
2021/09/21 05:09:36;;;;;;;14.97;13.53;;;13.40;99.90;;;;;;4972805;28;20200;-64
2021/09/21 05:12:02;;;;;;;14.33;12.83;;;13.40;99.90;;;;;;4972802;28;20219;-64
2021/09/21 05:14:29;;;;;;;13.27;12.17;;;13.40;99.90;;;;;;4973014;28;20176;-63
2021/09/21 05:16:54;;;;;;;13.40;12.00;;;13.30;99.90;;;;;;4973008;28;20424;-64
2021/09/21 05:19:20;;;;;;;14.33;13.00;;;13.20;99.90;;;;;;4972721;28;21015;-63
2021/09/21 05:21:45;;;;;;;13.47;12.23;;;13.20;99.90;;;;;;4976291;28;20188;-61
2021/09/21 05:24:11;;;;;;;14.50;13.10;;;13.10;99.90;;;;;;4985570;28;20176;-64
2021/09/21 05:26:38;;;;;;;14.30;12.80;;;13.10;99.90;;;;;;4976615;28;20172;-64
2021/09/21 05:29:04;;;;;;;14.83;13.47;;;13.10;99.90;;;;;;4976413;28;20207;-64
2021/09/21 05:31:30;;;;;;;13.40;11.33;;;13.20;99.90;;;;;;4976554;28;20530;-64
2021/09/21 05:33:56;;;;;;;14.50;13.10;;;13.10;99.90;;;;;;4976490;28;20427;-64
2021/09/21 05:36:21;;;;;;;14.97;13.60;;;13.10;99.90;;;;;;4980189;28;20523;-63
2021/09/21 05:38:47;;;;;;;12.73;11.53;;;13.10;99.90;;;;;;4983834;28;20271;-63
2021/09/21 05:41:13;;;;;;;14.53;13.07;;;13.20;99.90;;;;;;4986363;28;20187;-64
2021/09/21 05:43:38;;;;;;;13.30;12.20;;;13.20;99.90;;;;;;4977381;28;20517;-63
2021/09/21 05:46:04;;;;;;;13.57;12.43;;;13.20;99.90;;;;;;4988115;28;20187;-62
2021/09/21 05:48:29;;;;;;;14.57;13.07;;;13.20;99.90;;;;;;4976004;28;20581;-63
2021/09/21 05:50:55;;;;;;;15.37;13.87;;;13.20;99.90;;;;;;4976062;28;20200;-63
2021/09/21 05:53:20;;;;;;;13.13;11.83;;;13.20;99.90;;;;;;4976039;28;20204;-62
2021/09/21 05:55:46;;;;;;;12.93;11.63;;;13.30;99.90;;;;;;4976108;28;20171;-63
2021/09/21 05:58:12;;;;;;;12.43;11.23;;;13.30;99.90;;;;;;4975384;28;20259;-63
2021/09/21 06:00:37;;;;;;;13.23;12.07;;;13.40;99.90;;;;;;4975555;28;20196;-63
2021/09/21 06:03:03;;;;;;;12.97;11.83;;;13.40;99.90;;;;;;4979610;28;20446;-64
2021/09/21 06:05:29;;;;;;;13.07;11.90;;;13.40;99.90;;;;;;4975077;28;20259;-63
2021/09/21 06:07:55;;;;;;;12.27;11.27;;;13.40;99.90;;;;;;4982956;28;20534;-64
2021/09/21 06:10:23;;;;;;;14.97;12.30;;;13.40;99.90;;;;;;4975209;28;20255;-64
2021/09/21 06:12:49;;;;;;;13.20;12.00;;;13.20;99.90;;;;;;4975305;28;20215;-63
2021/09/21 06:15:16;;;;;;;15.00;12.10;;;13.20;99.90;;;;;;4977994;28;20439;-64
2021/09/21 06:17:42;;;;;;;13.20;12.10;;;13.30;99.90;;;;;;4975106;28;20519;-63
2021/09/21 06:20:10;;;;;;;16.23;13.87;;;13.50;99.90;;;;;;4974916;28;20490;-63
2021/09/21 06:22:37;;;;;;;13.00;11.80;;;13.70;99.90;;;;;;4978346;28;20454;-64
2021/09/21 06:25:04;;;;;;;12.70;11.40;;;14.00;99.90;;;;;;4975695;28;20526;-64
2021/09/21 06:27:30;;;;;;;13.43;11.60;;;14.30;99.90;;;;;;4974924;28;20436;-63
2021/09/21 06:29:55;;;;;;;13.43;12.13;;;14.50;99.90;;;;;;4974710;28;20533;-62
2021/09/21 06:32:21;;;;;;;13.77;12.40;;;14.80;99.90;;;;;;4974960;28;20207;-64
2021/09/21 06:34:46;;;;;;;13.87;12.57;;;14.80;99.90;;;;;;4978088;28;20661;-63
2021/09/21 06:37:14;;;;;;;11.90;10.90;;;15.00;99.90;;;;;;4974712;28;20171;-63
2021/09/21 06:39:39;;;;;;;13.27;11.90;;;15.00;99.90;;;;;;4974551;28;20188;-64
2021/09/21 06:42:05;;;;;;;16.47;11.73;;;15.00;99.90;;;;;;4977181;28;20436;-64
2021/09/21 06:44:30;;;;;;;12.33;11.07;;;15.00;99.90;;;;;;4981946;28;20192;-64
2021/09/21 06:46:56;;;;;;;13.00;11.83;;;15.30;99.90;;;;;;4974184;28;20199;-64
2021/09/21 06:49:21;;;;;;;12.10;11.00;;;15.50;99.90;;;;;;4979756;28;20566;-64
2021/09/21 06:51:47;;;;;;;11.97;10.87;;;15.60;99.90;;;;;;4988208;28;20259;-64
2021/09/21 06:54:12;;;;;;;12.40;11.37;;;15.80;99.90;;;;;;4972859;28;20235;-64
2021/09/21 06:56:38;;;;;;;14.30;13.00;;;16.00;99.90;;;;;;4973031;28;20179;-64
2021/09/21 06:59:03;;;;;;;12.27;11.20;;;16.10;99.90;;;;;;4973506;28;20686;-64
2021/09/21 07:01:29;;;;;;;12.13;11.13;;;16.40;99.90;;;;;;4977674;28;20203;-65
2021/09/21 07:03:55;;;;;;;11.87;10.83;;;16.60;99.90;;;;;;4974178;28;20185;-64
2021/09/21 07:06:20;;;;;;;12.83;11.70;;;16.60;99.90;;;;;;4979904;28;20239;-64
2021/09/21 07:08:46;;;;;;;12.60;11.40;;;16.90;99.90;;;;;;4988607;28;20175;-64
2021/09/21 07:11:13;;;;;;;12.90;11.80;;;17.20;99.90;;;;;;4974689;28;20545;-65
2021/09/21 07:13:39;;;;;;;12.30;11.13;;;17.30;99.90;;;;;;4974623;28;20173;-64
2021/09/21 07:16:04;;;;;;;12.80;10.93;;;17.30;99.90;;;;;;4974700;28;20543;-65
2021/09/21 07:18:30;;;;;;;18.10;16.60;;;17.50;99.90;;;;;;4974306;28;20653;-64
2021/09/21 07:20:56;;;;;;;14.20;12.80;;;17.70;99.90;;;;;;4973129;28;20200;-65
2021/09/21 07:23:21;;;;;;;12.77;11.47;;;17.90;99.90;;;;;;4975144;28;20263;-64
2021/09/21 07:25:47;;;;;;;11.90;11.00;;;17.90;99.90;;;;;;4974444;28;20310;-64
2021/09/21 07:28:12;;;;;;;12.47;11.40;;;17.80;99.90;;;;;;4974162;28;20195;-65
2021/09/21 07:30:38;;;;;;;12.60;11.37;;;17.70;99.90;;;;;;4974131;28;20266;-65
2021/09/21 07:33:06;;;;;;;13.40;11.93;;;17.60;99.90;;;;;;4973818;28;20314;-65
2021/09/21 07:35:32;;;;;;;11.90;10.80;;;17.70;99.90;;;;;;4974023;28;20204;-63
2021/09/21 07:37:57;;;;;;;11.77;10.57;;;17.80;99.90;;;;;;4973562;28;20435;-65
2021/09/21 07:40:23;;;;;;;12.63;11.53;;;17.90;99.90;;;;;;4973731;28;20506;-64
2021/09/21 07:42:49;;;;;;;11.60;10.60;;;18.00;99.90;;;;;;4973887;28;20251;-64
2021/09/21 07:45:16;;;;;;;11.80;10.77;;;18.00;99.90;;;;;;4971664;28;20196;-64
2021/09/21 07:47:41;;;;;;;14.47;12.27;;;18.00;99.90;;;;;;4979646;28;20451;-65
2021/09/21 07:50:09;;;;;;;11.63;10.73;;;18.00;99.90;;;;;;4975138;28;20443;-63
2021/09/21 07:52:34;;;;;;;12.00;10.80;;;17.70;99.90;;;;;;4979197;28;20463;-64
2021/09/21 07:55:00;;;;;;;10.87;9.97;;;17.70;99.90;;;;;;4974017;28;20428;-64
2021/09/21 07:57:26;;;;;;;11.40;10.33;;;17.80;99.90;;;;;;4973938;28;20207;-62
2021/09/21 07:59:52;;;;;;;10.50;9.60;;;17.80;99.90;;;;;;4985454;28;20226;-63
2021/09/21 08:02:18;;;;;;;11.77;10.77;;;17.80;99.90;;;;;;4972859;28;20439;-64
2021/09/21 08:04:43;;;;;;;10.10;9.17;;;17.80;99.90;;;;;;4973298;28;20458;-64
2021/09/21 08:07:09;;;;;;;11.70;10.53;;;18.20;99.90;;;;;;4972789;28;20184;-61
2021/09/21 08:09:36;;;;;;;10.50;9.53;;;18.10;99.90;;;;;;4973143;28;20211;-64
2021/09/21 08:12:03;;;;;;;10.67;9.73;;;18.00;99.90;;;;;;4987643;28;20607;-65
2021/09/21 08:14:28;;;;;;;10.67;9.83;;;18.20;99.90;;;;;;4990743;28;20477;-65
2021/09/21 08:16:55;;;;;;;13.70;12.40;;;18.40;99.90;;;;;;4973609;28;20822;-65
2021/09/21 08:19:20;;;;;;;12.50;10.50;;;18.80;99.90;;;;;;4980902;28;20196;-64
2021/09/21 08:21:46;;;;;;;16.40;14.90;;;19.00;99.90;;;;;;4973085;28;20442;-64
2021/09/21 08:24:11;;;;;;;10.40;9.60;;;18.80;99.90;;;;;;4973165;28;20188;-64
2021/09/21 08:26:37;;;;;;;11.73;10.70;;;18.90;99.90;;;;;;4976779;28;20188;-63
2021/09/21 08:29:02;;;;;;;10.23;9.40;;;18.80;99.90;;;;;;4974554;28;20218;-64
2021/09/21 08:31:28;;;;;;;10.20;9.20;;;18.50;99.90;;;;;;4972728;28;20566;-64
2021/09/21 08:33:55;;;;;;;9.57;8.77;;;18.90;99.90;;;;;;4976055;28;20186;-64
2021/09/21 08:36:20;;;;;;;10.37;9.57;;;18.80;99.90;;;;;;4973332;28;20264;-64
2021/09/21 08:38:46;;;;;;;10.53;9.60;;;19.10;99.90;;;;;;4972935;28;20506;-64
2021/09/21 08:41:12;;;;;;;9.57;8.77;;;19.30;99.60;;;;;;4972067;28;20168;-63
2021/09/21 08:43:37;;;;;;;9.50;8.80;;;19.70;99.00;;;;;;4981793;28;20187;-64
2021/09/21 08:46:03;;;;;;;9.50;8.33;;;20.10;98.00;;;;;;4992709;28;20226;-64
2021/09/21 08:48:29;;;;;;;8.33;7.73;;;20.60;96.60;;;;;;4990792;28;20732;-63
2021/09/21 08:50:56;;;;;;;7.83;7.23;;;20.70;94.80;;;;;;4983499;28;20245;-64
2021/09/21 08:53:22;;;;;;;8.07;7.40;;;21.50;93.40;;;;;;4973113;28;20463;-64
2021/09/21 08:55:47;;;;;;;9.20;8.40;;;22.30;91.40;;;;;;4972478;28;20510;-64
2021/09/21 08:58:13;;;;;;;8.43;7.63;;;22.70;90.00;;;;;;4972705;28;20168;-63
2021/09/21 09:00:39;;;;;;;8.00;7.40;;;23.60;86.60;;;;;;4976099;28;20184;-63
2021/09/21 09:03:14;;;;;;;7.87;6.90;;;23.90;83.20;;;;;;4976958;28;20427;-64
2021/09/21 09:05:48;;;;;;;8.10;7.40;;;24.70;80.10;;;;;;4977032;28;20668;-64
2021/09/21 09:08:14;;;;;;;7.17;6.57;;;24.60;76.20;;;;;;4976695;28;20426;-64
2021/09/21 09:10:40;;;;;;;7.70;7.10;;;25.20;74.20;;;;;;4981774;28;21050;-63
2021/09/21 09:13:19;;;;;;;8.03;7.50;;;26.50;70.60;;;;;;4977873;28;20475;-62
2021/09/21 09:15:54;;;;;;;8.33;7.60;;;26.30;67.80;;;;;;4976763;28;20430;-63
2021/09/21 09:18:27;;;;;;;8.40;7.70;;;25.80;64.80;;;;;;4976445;28;20789;-64
2021/09/21 09:20:52;;;;;;;7.97;7.37;;;24.80;66.20;;;;;;4991407;28;20453;-64
2021/09/21 09:23:18;;;;;;;7.73;7.13;;;23.40;67.70;;;;;;4980107;28;20435;-63
2021/09/21 09:25:46;;;;;;;8.60;7.90;;;23.10;68.80;;;;;;4976629;28;20643;-63
2021/09/21 09:28:24;;;;;;;8.87;8.07;;;21.90;72.20;;;;;;4976223;28;20189;-64
2021/09/21 09:30:52;;;;;;;8.50;7.90;;;21.50;73.60;;;;;;4976273;28;20458;-64
2021/09/21 09:33:19;;;;;;;8.50;7.83;;;21.70;74.00;;;;;;4976450;28;21062;-64
2021/09/21 09:35:46;;;;;;;8.33;6.97;;;23.20;71.50;;;;;;4976376;28;20422;-64
2021/09/21 09:38:14;;;;;;;8.70;8.00;;;24.60;69.50;;;;;;4975842;28;20437;-64
2021/09/21 09:40:46;;;;;;;7.13;6.43;;;25.50;66.50;;;;;;4975459;28;20539;-64
2021/09/21 09:43:16;;;;;;;8.73;7.83;;;26.20;64.50;;;;;;4976496;28;20435;-64
2021/09/21 09:45:46;;;;;;;7.97;7.37;;;26.00;63.50;;;;;;4975709;28;20502;-64
2021/09/21 09:48:14;;;;;;;8.07;7.47;;;26.20;60.60;;;;;;4975396;28;20534;-63
2021/09/21 09:50:44;;;;;;;8.30;7.73;;;26.60;60.50;;;;;;4975602;28;20486;-63
2021/09/21 09:53:13;;;;;;;8.33;7.63;;;26.20;60.40;;;;;;4974215;28;21007;-62
2021/09/21 09:55:44;;;;;;;9.90;9.10;;;26.70;60.40;;;;;;4974826;28;20435;-63
2021/09/21 09:58:10;;;;;;;8.53;7.93;;;26.80;58.50;;;;;;4975399;28;20430;-65
2021/09/21 10:00:37;;;;;;;8.30;7.70;;;26.60;58.90;;;;;;4975252;28;20455;-64
2021/09/21 10:03:03;;;;;;;8.73;8.10;;;27.10;59.10;;;;;;4975907;28;20527;-64
2021/09/21 10:05:30;;;;;;;8.97;8.27;;;27.70;57.60;;;;;;4975598;28;20424;-64
2021/09/21 10:08:00;;;;;;;8.17;7.57;;;28.20;56.40;;;;;;4975609;28;20420;-64
2021/09/21 10:10:26;;;;;;;8.57;7.97;;;28.20;54.80;;;;;;4975019;28;20485;-63
2021/09/21 10:12:52;;;;;;;9.27;8.67;;;27.70;55.90;;;;;;4975658;28;20455;-62
2021/09/21 10:15:18;;;;;;;10.13;9.43;;;27.70;55.30;;;;;;4978872;28;20941;-62
2021/09/21 10:17:55;;;;;;;9.20;8.13;;;28.10;54.80;;;;;;4975363;28;20432;-64
2021/09/21 10:20:44;;;;;;;9.43;8.63;;;28.70;53.70;;;;;;4975531;28;20991;-64
2021/09/21 10:23:10;;;;;;;11.33;10.43;;;29.20;53.00;;;;;;4973305;28;20423;-64
2021/09/21 10:25:38;;;;;;;8.30;7.70;;;30.60;50.70;;;;;;4975566;28;20462;-65
2021/09/21 10:28:19;;;;;;;8.43;7.83;;;30.90;50.30;;;;;;4975226;28;20469;-63
2021/09/21 10:30:57;;;;;;;8.10;7.50;;;31.90;48.70;;;;;;5011695;23;20484;-63
2021/09/21 10:33:24;;;;;;;8.80;8.20;;;31.60;46.60;;;;;;4987197;28;20462;-63
2021/09/21 10:35:52;;;;;;;8.33;7.73;;;31.70;46.40;;;;;;4994765;28;20451;-65
2021/09/21 10:38:19;;;;;;;9.27;8.47;;;31.40;46.40;;;;;;4993676;28;20920;-65
2021/09/21 10:40:52;;;;;;;8.50;7.90;;;31.70;46.20;;;;;;4995175;28;20454;-66
2021/09/21 10:43:32;;;;;;;8.90;8.20;;;32.20;45.20;;;;;;4994123;28;20445;-65
2021/09/21 10:46:12;;;;;;;9.57;8.77;;;33.70;42.90;;;;;;4994535;28;20834;-65
2021/09/21 10:48:40;;;;;;;10.33;9.67;;;33.60;42.50;;;;;;4993846;28;20513;-63
2021/09/21 10:51:08;;;;;;;7.40;6.90;;;34.40;40.60;;;;;;4994108;28;20537;-64
2021/09/21 10:53:34;;;;;;;8.67;8.00;;;34.60;40.10;;;;;;4994122;28;20468;-64
2021/09/21 10:56:11;;;;;;;8.90;8.30;;;35.70;39.50;;;;;;4994223;28;20509;-64
2021/09/21 10:58:38;;;;;;;7.60;7.10;;;34.40;38.60;;;;;;4991349;28;20259;-63
2021/09/21 11:01:05;;;;;;;9.10;8.33;;;33.40;39.70;;;;;;4993013;28;20501;-63
2021/09/21 11:03:35;;;;;;;8.47;7.83;;;32.20;40.80;;;;;;4994180;28;20430;-64
2021/09/21 11:06:01;;;;;;;6.90;6.43;;;32.00;41.10;;;;;;4991833;28;20442;-65
2021/09/21 11:08:31;;;;;;;7.10;6.50;;;30.10;42.30;;;;;;4992494;28;20804;-63
2021/09/21 11:11:01;;;;;;;7.80;7.00;;;29.60;43.60;;;;;;4993511;28;20283;-65
2021/09/21 11:13:34;;;;;;;7.60;7.10;;;28.10;44.90;;;;;;4993431;28;20466;-65
2021/09/21 11:16:01;;;;;;;7.63;7.13;;;28.50;44.80;;;;;;4994086;28;20450;-65
2021/09/21 11:18:28;;;;;;;8.57;7.87;;;27.90;44.70;;;;;;4993724;28;20430;-65
2021/09/21 11:21:00;;;;;;;9.33;8.63;;;27.10;45.60;;;;;;4993740;28;20446;-65
2021/09/21 11:23:28;;;;;;;7.40;6.90;;;28.10;46.30;;;;;;4973500;28;20517;-65
2021/09/21 11:25:56;;;;;;;7.73;7.23;;;28.80;45.20;;;;;;4974548;28;20435;-65
2021/09/21 11:28:22;;;;;;;9.10;8.40;;;28.40;44.60;;;;;;4974045;28;20432;-65
2021/09/21 11:30:48;;;;;;;10.37;9.47;;;26.40;46.20;;;;;;4974149;28;20456;-65
2021/09/21 11:33:20;;;;;;;9.17;8.57;;;24.70;48.90;;;;;;4989297;28;20562;-65
2021/09/21 11:35:47;;;;;;;9.63;8.73;;;23.60;50.60;;;;;;4992864;28;20517;-70
2021/09/21 11:38:13;;;;;;;8.17;7.67;;;23.10;51.80;;;;;;4992794;28;20909;-65
2021/09/21 11:40:42;;;;;;;9.10;8.50;;;23.20;52.50;;;;;;4993271;28;20549;-65
2021/09/21 11:43:09;;;;;;;9.10;8.40;;;23.00;53.00;;;;;;4993488;28;20644;-65
2021/09/21 11:45:34;;;;;;;9.07;8.37;;;23.00;53.00;;;;;;4993522;28;20542;-65
2021/09/21 11:48:00;;;;;;;8.80;7.97;;;23.40;53.20;;;;;;4993224;28;20454;-65
2021/09/21 11:50:28;;;;;;;8.57;7.97;;;23.80;52.40;;;;;;4992885;28;20191;-65
2021/09/21 11:52:59;;;;;;;10.17;9.47;;;24.50;51.70;;;;;;4993122;28;20624;-65
2021/09/21 11:55:27;;;;;;;8.30;7.60;;;24.50;51.60;;;;;;4993291;28;20425;-65
2021/09/21 11:57:54;;;;;;;9.50;8.80;;;24.40;52.00;;;;;;4992683;28;20493;-64
2021/09/21 12:00:21;;;;;;;9.80;9.00;;;24.60;51.60;;;;;;4992537;28;20501;-63
2021/09/21 12:02:55;;;;;;;9.70;8.90;;;24.10;52.10;;;;;;4993168;28;20423;-65
2021/09/21 12:05:21;;;;;;;8.70;8.10;;;23.60;53.40;;;;;;4992968;28;20426;-65
2021/09/21 12:07:48;;;;;;;11.57;8.13;;;23.70;53.80;;;;;;4992813;28;20480;-65
2021/09/21 12:10:14;;;;;;;10.17;9.30;;;24.40;51.90;;;;;;4992936;28;20188;-65
2021/09/21 12:12:40;;;;;;;9.43;8.63;;;25.00;51.20;;;;;;4992958;28;20524;-65
2021/09/21 12:15:06;;;;;;;7.73;7.20;;;25.40;51.00;;;;;;4993072;28;20423;-65
2021/09/21 12:17:40;;;;;;;8.47;7.77;;;25.80;50.40;;;;;;4992625;28;20414;-65
2021/09/21 12:20:08;;;;;;;9.47;8.67;;;26.40;50.20;;;;;;4992780;28;20446;-65
2021/09/21 12:22:33;;;;;;;8.37;7.77;;;26.80;48.70;;;;;;4992632;28;20435;-65
2021/09/21 12:25:09;;;;;;;9.80;9.03;;;28.20;48.00;;;;;;4992909;28;20947;-66
2021/09/21 12:27:36;;;;;;;8.80;8.00;;;29.50;46.10;;;;;;4992474;28;20199;-65
2021/09/21 12:30:06;;;;;;;9.43;8.73;;;30.60;45.30;;;;;;4992255;28;20470;-65
2021/09/21 12:32:32;;;;;;;9.47;8.67;;;31.40;44.10;;;;;;4992543;28;20867;-64
2021/09/21 12:35:02;;;;;;;8.00;7.40;;;31.10;43.70;;;;;;4990724;28;20474;-65
2021/09/21 12:37:39;;;;;;;8.00;7.40;;;31.80;43.60;;;;;;4991564;28;20172;-65
2021/09/21 12:40:13;;;;;;;8.57;7.70;;;31.70;44.00;;;;;;4979499;28;20481;-66
2021/09/21 12:42:42;;;;;;;9.00;8.27;;;32.90;41.80;;;;;;4990560;28;20477;-65
2021/09/21 12:45:09;;;;;;;9.93;9.30;;;34.10;40.70;;;;;;4990973;28;20517;-64